Time;durP1;ratioP1;P1;durP2;ratioP2;P2;SDS_P1;SDS_P2;PMS_P1;PMS_P2;Temp;Humidity;BMP_temperature;BMP_pressure;BME280_temperature;BME280_humidity;BME280_pressure;Samples;Min_cycle;Max_cycle;Signal;HPM_P1;HPM_P2
2022/09/11 00:00:15;;;;;;;11.15;5.28;;;;;;;19.18;85.29;94721.41;5081739;28;20260;-76
2022/09/11 00:02:41;;;;;;;6.82;4.93;;;;;;;19.15;85.73;94719.25;5082127;28;20180;-76
2022/09/11 00:05:06;;;;;;;9.45;6.22;;;;;;;19.12;85.91;94716.31;5087281;28;20625;-76
2022/09/11 00:07:32;;;;;;;13.15;9.27;;;;;;;19.11;86.27;94712.06;5086098;28;20189;-76
2022/09/11 00:09:57;;;;;;;32.40;22.63;;;;;;;18.99;86.56;94708.84;5085613;28;20169;-75
2022/09/11 00:12:22;;;;;;;33.03;23.38;;;;;;;19.02;86.48;94719.81;5064348;28;20626;-75
2022/09/11 00:14:48;;;;;;;46.28;32.10;;;;;;;19.00;86.49;94724.59;5086713;28;20184;-75
2022/09/11 00:17:16;;;;;;;34.03;23.88;;;;;;;18.89;86.49;94717.63;5086909;28;20665;-75
2022/09/11 00:19:41;;;;;;;37.13;22.98;;;;;;;18.89;86.85;94716.84;5082674;28;20217;-75
2022/09/11 00:22:08;;;;;;;25.70;16.20;;;;;;;18.65;86.86;94709.34;5089604;28;20226;-75
2022/09/11 00:24:33;;;;;;;21.67;13.45;;;;;;;18.74;87.36;94717.63;5088617;28;20177;-75
2022/09/11 00:26:59;;;;;;;14.18;9.25;;;;;;;18.72;87.59;94717.88;5090753;28;20702;-76
2022/09/11 00:29:25;;;;;;;19.23;13.55;;;;;;;18.69;88.05;94725.59;5090800;28;20194;-76
2022/09/11 00:31:51;;;;;;;16.02;9.70;;;;;;;18.74;88.14;94717.63;5091282;28;20205;-75
2022/09/11 00:34:16;;;;;;;14.23;8.38;;;;;;;18.71;87.78;94716.28;5090634;28;20185;-75
2022/09/11 00:36:42;;;;;;;11.20;7.32;;;;;;;18.78;87.77;94724.03;5090747;28;20173;-75
2022/09/11 00:39:10;;;;;;;7.47;6.00;;;;;;;18.71;87.64;94716.28;5090598;28;20713;-75
2022/09/11 00:41:39;;;;;;;8.65;6.00;;;;;;;18.61;88.49;94704.78;5090508;28;20308;-75
2022/09/11 00:44:11;;;;;;;12.68;6.32;;;;;;;18.70;88.63;94716.53;5090695;28;20201;-75
2022/09/11 00:46:50;;;;;;;8.60;6.45;;;;;;;18.74;88.18;94717.63;5090701;28;20190;-75
2022/09/11 00:49:31;;;;;;;8.77;6.13;;;;;;;18.80;88.34;94709.38;5090506;28;20180;-75
2022/09/11 00:52:07;;;;;;;8.50;5.55;;;;;;;18.83;87.43;94722.19;5090038;28;20224;-75
2022/09/11 00:54:39;;;;;;;8.80;5.63;;;;;;;18.87;88.00;94721.63;5094614;28;20185;-75
2022/09/11 00:57:07;;;;;;;8.25;5.93;;;;;;;18.73;87.58;94700.81;5094597;28;20174;-75
2022/09/11 00:59:33;;;;;;;7.20;4.60;;;;;;;18.84;87.34;94720.31;5094676;28;20257;-75
2022/09/11 01:02:00;;;;;;;8.52;5.50;;;;;;;18.81;87.87;94720.84;5094719;28;20185;-75
2022/09/11 01:04:28;;;;;;;10.27;5.60;;;;;;;18.83;87.51;94716.03;5094551;28;20189;-76
2022/09/11 01:06:56;;;;;;;6.10;5.05;;;;;;;18.65;87.78;94695.22;5094456;28;20203;-75
2022/09/11 01:09:32;;;;;;;10.02;5.78;;;;;;;18.77;87.94;94725.09;5094268;28;20736;-75
2022/09/11 01:12:09;;;;;;;6.18;4.80;;;;;;;18.75;87.84;94722.72;5094374;28;20173;-76
2022/09/11 01:15:02;;;;;;;8.10;5.70;;;;;;;18.76;87.70;94720.84;5094503;28;20238;-76
2022/09/11 01:17:39;;;;;;;10.95;5.75;;;;;;;18.70;87.68;94717.34;5094251;28;20173;-76
2022/09/11 01:20:17;;;;;;;7.32;5.55;;;;;;;18.69;88.00;94717.59;5094333;28;20173;-75
2022/09/11 01:22:57;;;;;;;7.88;5.45;;;;;;;18.67;87.98;94725.91;5094255;28;20675;-75
2022/09/11 01:25:28;;;;;;;7.13;5.28;;;;;;;18.64;87.99;94722.94;5094360;28;20189;-76
2022/09/11 01:27:59;;;;;;;9.60;5.30;;;;;;;18.56;87.72;94708.25;5094039;28;20635;-76
2022/09/11 01:30:36;;;;;;;7.05;5.65;;;;;;;18.57;88.06;94719.72;5094028;28;20268;-75
2022/09/11 01:33:23;;;;;;;6.28;5.15;;;;;;;18.45;88.05;94706.59;5094264;28;20174;-76
2022/09/11 01:35:58;;;;;;;7.05;5.40;;;;;;;18.47;88.73;94710.63;5093963;28;20197;-75
2022/09/11 01:38:53;;;;;;;9.65;5.68;;;;;;;18.43;89.20;94709.53;5093921;28;20177;-75
2022/09/11 01:41:30;;;;;;;7.55;5.30;;;;;;;18.42;89.55;94712.47;5093699;28;20720;-75
2022/09/11 01:44:06;;;;;;;7.82;5.70;;;;;;;18.41;89.70;94705.53;5093855;28;20177;-75
2022/09/11 01:46:44;;;;;;;6.55;5.07;;;;;;;18.42;90.21;94704.47;5093729;28;20680;-75
2022/09/11 01:49:18;;;;;;;10.57;6.10;;;;;;;18.45;89.95;94691.41;5093676;28;20185;-75
2022/09/11 01:51:46;;;;;;;7.40;5.75;;;;;;;18.45;90.02;94693.28;5093704;28;20182;-75
2022/09/11 01:54:21;;;;;;;7.28;5.40;;;;;;;18.40;90.12;94687.94;5093385;28;20201;-75
2022/09/11 01:57:03;;;;;;;7.95;5.25;;;;;;;18.17;89.79;94654.56;5093528;28;20180;-75
2022/09/11 01:59:43;;;;;;;7.53;5.78;;;;;;;18.29;89.88;94684.44;5093416;28;20173;-75
2022/09/11 02:02:12;;;;;;;7.63;4.82;;;;;;;18.06;89.86;94651.09;5093833;28;20236;-75
2022/09/11 02:04:48;;;;;;;9.93;6.20;;;;;;;18.21;90.40;94665.50;5092531;28;20723;-75
2022/09/11 02:07:26;;;;;;;11.90;6.18;;;;;;;18.29;90.61;94680.97;5066567;28;20197;-75
2022/09/11 02:10:05;;;;;;;5.88;4.95;;;;;;;18.28;91.32;94676.72;5093217;28;20181;-75
2022/09/11 02:12:40;;;;;;;7.90;4.95;;;;;;;18.32;91.21;94681.28;5093213;28;20193;-75
2022/09/11 02:15:07;;;;;;;10.30;5.57;;;;;;;18.27;91.03;94669.78;5093565;28;20181;-75
2022/09/11 02:17:44;;;;;;;7.13;5.80;;;;;;;18.24;90.86;94675.66;5093155;28;20208;-75
2022/09/11 02:20:10;;;;;;;11.50;8.45;;;;;;;18.18;90.31;94672.16;5092644;28;20569;-75
2022/09/11 02:22:36;;;;;;;15.55;11.50;;;;;;;18.16;90.52;94674.28;5092950;28;20177;-75
2022/09/11 02:25:02;;;;;;;19.92;15.23;;;;;;;18.00;90.40;94653.97;5092939;28;20192;-75
2022/09/11 02:27:30;;;;;;;27.95;20.52;;;;;;;17.98;90.00;94646.28;5092846;28;20197;-76
2022/09/11 02:29:57;;;;;;;38.38;27.05;;;;;;;18.14;90.18;94675.63;5092630;28;20668;-75
2022/09/11 02:32:25;;;;;;;48.15;39.00;;;;;;;18.13;90.30;94674.81;5092978;28;20209;-76
2022/09/11 02:34:54;;;;;;;69.18;54.17;;;;;;;18.10;90.34;94681.44;5092927;28;20177;-76
2022/09/11 02:37:37;;;;;;;87.40;63.92;;;;;;;18.10;90.48;94673.47;5092750;28;20188;-76
2022/09/11 02:40:10;;;;;;;106.68;81.95;;;;;;;18.10;90.74;94675.31;5092723;28;20218;-76
2022/09/11 02:42:59;;;;;;;93.43;69.75;;;;;;;18.06;90.32;94667.06;5092922;28;20177;-75
2022/09/11 02:46:20;;;;;;;102.35;68.95;;;;;;;18.08;90.43;94675.59;5092866;28;20617;-75
2022/09/11 02:48:56;;;;;;;49.88;36.92;;;;;;;18.06;90.77;94672.41;5058279;28;20201;-75
2022/09/11 02:51:48;;;;;;;59.05;39.92;;;;;;;18.06;91.07;94666.28;5092327;28;20216;-76
2022/09/11 02:54:22;;;;;;;35.10;24.35;;;;;;;18.04;91.12;94668.38;5092361;28;20554;-75
2022/09/11 02:56:51;;;;;;;31.30;21.77;;;;;;;18.07;91.01;94671.31;5092608;28;20553;-76
2022/09/11 02:59:23;;;;;;;15.95;11.63;;;;;;;18.11;90.78;94671.59;5092435;28;20234;-75
2022/09/11 03:01:54;;;;;;;17.05;8.95;;;;;;;18.05;90.73;94672.66;5083817;28;20227;-75
2022/09/11 03:04:22;;;;;;;11.00;7.03;;;;;;;17.86;90.71;94644.88;5092267;28;20541;-75
2022/09/11 03:06:48;;;;;;;9.57;5.70;;;;;;;18.02;90.77;94678.50;5092074;28;20744;-75
2022/09/11 03:09:16;;;;;;;12.85;8.50;;;;;;;18.03;90.97;94677.44;5091805;28;20181;-75
2022/09/11 03:11:42;;;;;;;7.72;6.68;;;;;;;18.03;90.77;94675.56;5091931;28;20173;-75
2022/09/11 03:14:08;;;;;;;9.25;5.75;;;;;;;18.00;91.01;94670.75;5092300;28;20708;-75
2022/09/11 03:16:35;;;;;;;12.90;6.10;;;;;;;18.01;91.19;94676.88;5091934;28;20248;-75
2022/09/11 03:19:01;;;;;;;11.07;5.88;;;;;;;17.99;91.02;94679.81;5083233;28;20177;-75
2022/09/11 03:21:27;;;;;;;8.40;6.05;;;;;;;18.01;91.05;94685.69;5091931;28;20634;-75
2022/09/11 03:23:52;;;;;;;7.53;5.68;;;;;;;17.94;91.38;94687.78;5092149;28;20197;-75
2022/09/11 03:26:17;;;;;;;8.00;5.18;;;;;;;17.80;91.67;94693.88;5091957;28;20181;-75
2022/09/11 03:28:43;;;;;;;6.72;5.05;;;;;;;17.72;92.29;94681.84;5092260;28;20170;-75
2022/09/11 03:31:09;;;;;;;12.50;7.90;;;;;;;17.61;92.77;94699.59;5091925;28;20180;-75
2022/09/11 03:33:34;;;;;;;34.10;22.52;;;;;;;17.58;93.33;94700.09;5091849;28;20174;-75
2022/09/11 03:36:00;;;;;;;18.05;11.13;;;;;;;17.61;93.31;94699.59;5091752;28;20184;-75
2022/09/11 03:38:26;;;;;;;20.92;7.78;;;;;;;17.60;93.10;94698.00;5091734;28;20174;-75
2022/09/11 03:40:53;;;;;;;34.25;20.83;;;;;;;17.61;93.18;94704.91;5091722;28;20240;-75
2022/09/11 03:43:19;;;;;;;42.00;26.63;;;;;;;17.48;93.27;94699.22;5091742;28;20687;-75
2022/09/11 03:45:48;;;;;;;18.92;12.20;;;;;;;17.53;93.49;94708.06;5091693;28;20178;-75
2022/09/11 03:48:14;;;;;;;41.72;26.60;;;;;;;17.53;93.23;94705.41;5091424;28;20284;-76
2022/09/11 03:50:40;;;;;;;15.93;9.25;;;;;;;17.55;93.33;94713.16;5091607;28;20606;-75
2022/09/11 03:53:05;;;;;;;17.85;11.18;;;;;;;17.42;93.10;94690.44;5091423;28;20181;-75
2022/09/11 03:55:31;;;;;;;9.13;6.95;;;;;;;17.45;92.96;94710.41;5091539;28;20182;-75
2022/09/11 03:57:57;;;;;;;13.50;6.45;;;;;;;17.40;93.45;94711.16;5091370;28;20162;-75
2022/09/11 04:00:24;;;;;;;10.80;6.38;;;;;;;17.37;93.57;94710.91;5091333;28;20174;-75
2022/09/11 04:02:49;;;;;;;8.55;6.13;;;;;;;17.21;93.79;94683.38;5091343;28;20181;-75
2022/09/11 04:05:15;;;;;;;8.52;5.68;;;;;;;17.33;93.29;94715.91;5091040;28;20181;-75
2022/09/11 04:07:40;;;;;;;8.02;6.00;;;;;;;17.12;93.38;94711.53;5090998;28;20281;-75
2022/09/11 04:10:06;;;;;;;9.27;6.72;;;;;;;16.87;93.64;94678.31;5091183;28;20251;-75
2022/09/11 04:12:32;;;;;;;9.50;7.45;;;;;;;17.04;94.34;94704.00;5091100;28;20191;-75
2022/09/11 04:14:58;;;;;;;8.80;6.95;;;;;;;17.03;94.46;94711.19;5090930;28;20621;-75
2022/09/11 04:17:23;;;;;;;10.68;7.28;;;;;;;17.08;94.18;94715.72;5091098;28;20176;-75
2022/09/11 04:19:49;;;;;;;10.48;7.78;;;;;;;17.05;93.74;94710.91;5090860;28;20176;-75
2022/09/11 04:22:14;;;;;;;14.52;8.40;;;;;;;17.12;93.69;94717.66;5090437;28;20176;-75
2022/09/11 04:24:39;;;;;;;12.73;8.82;;;;;;;17.11;93.61;94713.38;5090561;28;20170;-75
2022/09/11 04:27:05;;;;;;;9.07;7.10;;;;;;;17.08;93.69;94710.41;5089857;28;20209;-75
2022/09/11 04:29:32;;;;;;;13.68;8.45;;;;;;;17.10;93.37;94708.31;5090793;28;20602;-75
2022/09/11 04:31:57;;;;;;;23.27;13.50;;;;;;;17.03;93.06;94697.09;5090735;28;20181;-75
2022/09/11 04:34:22;;;;;;;21.05;12.65;;;;;;;17.16;93.01;94716.06;5090817;28;20541;-75
2022/09/11 04:36:48;;;;;;;20.25;10.75;;;;;;;17.25;92.71;94719.06;5090359;28;20174;-75
2022/09/11 04:39:14;;;;;;;10.90;7.65;;;;;;;17.17;92.39;94711.53;5090681;28;20324;-75
2022/09/11 04:41:39;;;;;;;14.55;8.00;;;;;;;17.21;92.35;94710.00;5090185;28;20221;-75
2022/09/11 04:44:05;;;;;;;5.88;5.22;;;;;;;17.14;92.32;94720.84;5090331;28;20200;-75
2022/09/11 04:46:30;;;;;;;10.68;6.45;;;;;;;17.09;93.14;94727.97;5090267;28;20201;-75
2022/09/11 04:49:00;;;;;;;12.27;7.70;;;;;;;17.05;93.18;94708.25;5090494;28;20235;-75
2022/09/11 04:51:29;;;;;;;11.57;6.25;;;;;;;17.25;93.15;94719.84;5090613;28;20189;-75
2022/09/11 04:53:56;;;;;;;10.75;6.68;;;;;;;17.34;93.48;94728.16;5090584;28;20265;-75
2022/09/11 04:56:23;;;;;;;9.48;6.68;;;;;;;17.43;93.57;94726.63;5090400;28;20252;-75
2022/09/11 04:58:54;;;;;;;9.80;6.72;;;;;;;17.73;93.09;94734.81;5090359;28;20174;-75
2022/09/11 05:01:19;;;;;;;9.30;6.10;;;;;;;18.44;92.03;94732.47;5089659;28;20173;-75
2022/09/11 05:03:45;;;;;;;11.65;7.50;;;;;;;19.50;88.71;94729.13;5090382;28;20189;-75
2022/09/11 05:06:15;;;;;;;12.95;5.13;;;;;;;21.16;82.21;94738.59;5090314;28;20224;-75
2022/09/11 05:08:42;;;;;;;6.97;4.93;;;;;;;22.95;73.43;94748.75;5072378;28;20538;-75
2022/09/11 05:11:10;;;;;;;10.20;6.35;;;;;;;24.75;67.46;94755.00;5090101;28;20239;-75
2022/09/11 05:13:36;;;;;;;7.55;4.93;;;;;;;26.12;60.59;94749.03;5072403;28;20181;-76
2022/09/11 05:16:09;;;;;;;6.47;4.43;;;;;;;26.82;57.65;94733.88;5087967;28;20196;-74
2022/09/11 05:18:36;;;;;;;5.38;3.80;;;;;;;27.87;55.29;94745.16;5089396;28;20602;-74
2022/09/11 05:21:07;;;;;;;5.80;4.28;;;;;;;28.62;52.41;94742.84;5090240;28;20185;-74
2022/09/11 05:23:33;;;;;;;4.90;4.32;;;;;;;29.57;50.10;94749.22;5090011;28;20178;-74
2022/09/11 05:26:00;;;;;;;7.07;4.00;;;;;;;30.67;47.71;94742.13;5090237;28;20178;-74
2022/09/11 05:28:27;;;;;;;8.07;5.68;;;;;;;31.58;45.86;94747.94;5089901;28;20243;-74
2022/09/11 05:30:53;;;;;;;4.95;4.13;;;;;;;32.17;44.04;94718.06;5090477;28;20673;-75
2022/09/11 05:33:19;;;;;;;6.60;4.40;;;;;;;32.17;43.85;94744.53;5090323;28;20628;-74
2022/09/11 05:35:45;;;;;;;8.23;5.93;;;;;;;32.58;42.54;94741.28;5081411;28;20220;-74
2022/09/11 05:38:11;;;;;;;11.50;8.00;;;;;;;33.17;41.81;94739.53;5090758;28;20222;-75
2022/09/11 05:40:43;;;;;;;9.32;7.05;;;;;;;33.69;40.60;94739.88;5093980;28;20222;-75
2022/09/11 05:43:08;;;;;;;13.43;9.63;;;;;;;34.28;40.03;94737.88;5093986;28;20170;-75
2022/09/11 05:45:33;;;;;;;7.15;4.60;;;;;;;34.71;39.15;94733.88;5093805;28;20254;-75
2022/09/11 05:48:02;;;;;;;8.65;6.25;;;;;;;35.19;37.90;94740.50;5085015;28;20239;-75
2022/09/11 05:50:30;;;;;;;7.68;5.32;;;;;;;35.66;37.08;94748.16;5085471;28;20256;-75
2022/09/11 05:52:56;;;;;;;9.15;5.70;;;;;;;35.94;36.57;94747.75;5093347;28;20177;-75
2022/09/11 05:55:21;;;;;;;6.65;4.97;;;;;;;36.26;36.24;94745.34;5092119;28;20193;-74
2022/09/11 05:57:46;;;;;;;7.38;6.25;;;;;;;36.61;35.08;94733.91;5093199;28;20182;-73
2022/09/11 06:00:12;;;;;;;8.40;7.53;;;;;;;37.00;34.70;94746.00;5093034;28;20196;-74
2022/09/11 06:02:38;;;;;;;8.48;6.53;;;;;;;37.37;34.16;94748.59;5093099;28;20255;-74
2022/09/11 06:05:03;;;;;;;11.07;8.45;;;;;;;37.09;33.55;94709.97;5093430;28;20264;-74
2022/09/11 06:07:29;;;;;;;6.65;5.35;;;;;;;37.57;33.68;94740.84;5093095;28;20904;-75
2022/09/11 06:09:56;;;;;;;8.85;6.20;;;;;;;37.35;33.36;94741.91;5092422;28;20526;-75
2022/09/11 06:12:21;;;;;;;6.70;6.03;;;;;;;37.43;33.21;94749.03;5086291;28;20268;-75
2022/09/11 06:14:47;;;;;;;5.25;4.75;;;;;;;37.51;33.35;94747.09;5092277;28;20280;-74
2022/09/11 06:17:12;;;;;;;14.80;10.30;;;;;;;36.45;34.36;94758.06;5091753;28;20166;-75
2022/09/11 06:19:37;;;;;;;6.40;4.95;;;;;;;36.04;34.55;94755.28;5092478;28;20231;-75
2022/09/11 06:22:03;;;;;;;6.70;4.90;;;;;;;35.68;36.20;94756.81;5092845;28;20665;-76
2022/09/11 06:24:28;;;;;;;7.03;5.68;;;;;;;35.68;35.41;94764.25;5093447;28;20197;-76
2022/09/11 06:26:54;;;;;;;7.95;5.65;;;;;;;35.44;36.85;94741.66;5092865;28;20268;-76
2022/09/11 06:29:20;;;;;;;8.18;6.82;;;;;;;35.28;37.89;94757.47;5092840;28;20178;-75
2022/09/11 06:31:47;;;;;;;7.63;6.57;;;;;;;34.79;37.85;94735.59;5092956;28;20675;-74
2022/09/11 06:34:13;;;;;;;12.70;9.80;;;;;;;34.64;38.05;94753.72;5092751;28;20169;-74
2022/09/11 06:36:38;;;;;;;7.68;5.70;;;;;;;33.69;39.63;94750.78;5092428;28;20222;-74
2022/09/11 06:39:04;;;;;;;7.78;6.30;;;;;;;32.74;41.32;94754.13;5092574;28;20558;-74
2022/09/11 06:41:29;;;;;;;8.70;6.38;;;;;;;31.60;43.53;94759.28;5092360;28;20224;-74
2022/09/11 06:43:55;;;;;;;7.90;6.75;;;;;;;30.68;45.22;94749.16;5091728;28;20273;-73
2022/09/11 06:46:22;;;;;;;6.80;6.10;;;;;;;29.69;47.33;94742.25;5091495;28;20177;-73
2022/09/11 06:48:49;;;;;;;8.98;6.90;;;;;;;28.97;49.47;94754.31;5092434;28;20170;-73
2022/09/11 06:51:17;;;;;;;9.63;8.18;;;;;;;28.50;51.42;94755.16;5091684;28;20208;-73
2022/09/11 06:53:44;;;;;;;7.78;6.20;;;;;;;28.20;53.08;94728.38;5092495;28;20178;-74
2022/09/11 06:56:12;;;;;;;9.98;7.32;;;;;;;28.37;52.90;94745.34;5092539;28;20234;-73
2022/09/11 06:58:38;;;;;;;8.45;6.38;;;;;;;28.14;52.65;94746.69;5092041;28;20287;-73
2022/09/11 07:01:10;;;;;;;11.02;6.97;;;;;;;27.47;55.00;94751.91;5091993;28;20177;-73
2022/09/11 07:03:36;;;;;;;8.05;6.57;;;;;;;27.02;56.87;94755.72;5091061;28;20190;-73
2022/09/11 07:06:02;;;;;;;9.40;8.07;;;;;;;26.91;58.33;94737.41;5090941;28;20527;-73
2022/09/11 07:08:28;;;;;;;8.77;6.70;;;;;;;27.13;55.32;94739.97;5091078;28;20205;-73
2022/09/11 07:10:54;;;;;;;7.38;6.57;;;;;;;27.23;56.55;94750.50;5091159;28;20181;-73
2022/09/11 07:13:22;;;;;;;9.95;6.68;;;;;;;26.92;56.70;94750.59;5091516;28;20180;-73
2022/09/11 07:15:48;;;;;;;6.20;5.60;;;;;;;25.89;57.55;94720.53;5091244;28;20173;-73
2022/09/11 07:18:13;;;;;;;7.85;6.18;;;;;;;25.67;60.77;94740.25;5091570;28;20196;-74
2022/09/11 07:20:40;;;;;;;9.73;7.70;;;;;;;25.60;61.64;94745.25;5092055;28;20165;-74
2022/09/11 07:23:08;;;;;;;10.25;7.85;;;;;;;25.58;59.17;94725.91;5092003;28;20169;-75
2022/09/11 07:25:37;;;;;;;16.80;11.05;;;;;;;25.73;60.60;94735.53;5091956;28;20182;-75
2022/09/11 07:28:03;;;;;;;11.80;8.43;;;;;;;25.58;58.82;94744.78;5092014;28;20700;-75
2022/09/11 07:30:28;;;;;;;11.80;7.13;;;;;;;25.33;60.66;94730.00;5092056;28;20174;-76
2022/09/11 07:32:54;;;;;;;8.68;7.78;;;;;;;25.20;60.36;94733.53;5092249;28;20196;-75
2022/09/11 07:35:20;;;;;;;10.10;7.07;;;;;;;25.01;62.42;94731.00;5091463;28;20188;-75
2022/09/11 07:37:47;;;;;;;9.65;6.72;;;;;;;25.21;61.05;94712.78;5089268;28;20408;-76
2022/09/11 07:40:14;;;;;;;6.30;5.70;;;;;;;25.45;59.73;94715.97;5082903;28;20222;-76
2022/09/11 07:42:40;;;;;;;8.43;6.65;;;;;;;25.70;59.24;94726.13;5081026;28;20218;-77
2022/09/11 07:45:06;;;;;;;9.77;5.95;;;;;;;25.64;56.96;94729.28;5080903;28;20280;-77
2022/09/11 07:47:32;;;;;;;8.13;6.22;;;;;;;25.64;56.83;94696.91;5068159;28;20201;-77
2022/09/11 07:49:58;;;;;;;8.00;6.18;;;;;;;25.68;58.36;94728.38;5071875;28;20248;-77
2022/09/11 07:52:23;;;;;;;8.15;6.15;;;;;;;25.41;57.62;94712.31;5088165;28;20186;-75
2022/09/11 07:54:49;;;;;;;7.10;6.10;;;;;;;25.83;59.27;94729.88;5086126;28;20181;-76
2022/09/11 07:57:15;;;;;;;9.48;6.25;;;;;;;25.84;56.24;94726.88;5081425;28;20189;-76
2022/09/11 07:59:40;;;;;;;8.68;6.80;;;;;;;25.85;57.78;94733.06;5080836;28;20178;-76
2022/09/11 08:02:06;;;;;;;6.93;6.15;;;;;;;26.35;58.37;94724.72;5082698;28;20667;-74
2022/09/11 08:04:37;;;;;;;7.20;6.20;;;;;;;26.86;56.18;94722.13;5077606;28;20240;-77
2022/09/11 08:07:05;;;;;;;7.25;6.22;;;;;;;27.33;53.50;94722.34;5080310;28;20276;-77
2022/09/11 08:09:31;;;;;;;7.97;6.82;;;;;;;26.93;53.99;94705.47;5082625;28;20178;-78
2022/09/11 08:11:57;;;;;;;8.27;5.88;;;;;;;27.09;55.93;94725.50;5079436;28;20193;-77
2022/09/11 08:14:26;;;;;;;7.38;6.53;;;;;;;27.21;54.32;94714.06;5079051;28;20201;-77
2022/09/11 08:16:52;;;;;;;8.70;6.43;;;;;;;26.90;55.72;94687.94;5084322;28;20207;-77
2022/09/11 08:19:21;;;;;;;9.48;6.90;;;;;;;27.14;54.38;94713.75;5083641;28;20265;-76
2022/09/11 08:21:47;;;;;;;8.52;6.03;;;;;;;27.01;51.63;94710.06;5079729;28;20190;-79
2022/09/11 08:24:16;;;;;;;10.88;6.70;;;;;;;27.18;54.51;94712.78;5083012;28;20649;-77
2022/09/11 08:26:42;;;;;;;7.18;6.40;;;;;;;27.56;54.33;94704.81;5078929;28;20239;-77
2022/09/11 08:29:08;;;;;;;7.65;6.30;;;;;;;27.90;53.47;94708.56;5080805;28;20216;-76
2022/09/11 08:31:34;;;;;;;19.10;6.22;;;;;;;28.22;51.66;94677.38;5083068;28;20265;-76
2022/09/11 08:33:59;;;;;;;9.15;6.30;;;;;;;28.70;50.09;94710.28;5080849;28;20949;-75
2022/09/11 08:36:25;;;;;;;7.45;6.03;;;;;;;28.15;49.05;94694.13;5086108;28;20207;-74
2022/09/11 08:38:51;;;;;;;6.65;6.05;;;;;;;28.10;51.16;94708.66;5085998;28;20181;-75
2022/09/11 08:41:16;;;;;;;9.18;6.20;;;;;;;28.22;50.75;94709.88;5088902;28;20241;-76
2022/09/11 08:43:50;;;;;;;7.65;6.28;;;;;;;28.61;50.82;94706.03;5070149;28;20208;-77
2022/09/11 08:46:18;;;;;;;6.82;6.13;;;;;;;28.30;50.60;94698.22;5089122;28;20204;-76
2022/09/11 08:49:16;;;;;;;9.93;5.97;;;;;;;27.93;54.44;94703.31;5079295;28;20186;-75
2022/09/11 08:51:43;;;;;;;7.90;6.00;;;;;;;28.29;50.40;94704.75;5079797;28;20197;-76
2022/09/11 08:54:36;;;;;;;6.50;5.50;;;;;;;28.47;46.21;94698.13;5083872;28;20200;-76
2022/09/11 08:57:05;;;;;;;6.95;5.90;;;;;;;28.23;49.37;94701.44;5083441;28;20165;-76
2022/09/11 08:59:34;;;;;;;9.50;6.28;;;;;;;28.32;48.97;94696.78;5081599;28;20185;-75
2022/09/11 09:02:26;;;;;;;7.90;6.13;;;;;;;28.48;48.14;94689.69;5080796;28;20181;-74
2022/09/11 09:05:13;;;;;;;7.40;6.38;;;;;;;28.18;47.88;94690.00;5101252;28;20251;-76
2022/09/11 09:07:50;;;;;;;8.07;7.00;;;;;;;28.13;48.04;94689.03;5098039;28;20228;-77
2022/09/11 09:10:41;;;;;;;10.15;6.28;;;;;;;28.16;48.62;94687.63;5100197;28;20180;-76
2022/09/11 09:13:25;;;;;;;7.25;6.20;;;;;;;27.98;47.13;94683.38;5093145;28;20184;-76
2022/09/11 09:16:05;;;;;;;8.80;6.20;;;;;;;27.92;48.38;94680.06;5099267;28;20196;-76
2022/09/11 09:18:34;;;;;;;7.40;6.18;;;;;;;28.13;48.63;94680.13;5102404;28;20220;-77
2022/09/11 09:21:09;;;;;;;7.18;6.45;;;;;;;27.66;46.21;94646.88;5099649;28;20263;-77
2022/09/11 09:23:42;;;;;;;10.18;6.45;;;;;;;27.37;49.08;94669.19;5082627;28;20173;-78
2022/09/11 09:26:16;;;;;;;7.40;6.20;;;;;;;27.30;48.29;94650.75;5094964;28;20189;-78
2022/09/11 09:28:46;;;;;;;10.50;6.72;;;;;;;27.62;49.92;94665.66;5095389;28;20690;-78
2022/09/11 09:31:16;;;;;;;8.35;6.55;;;;;;;27.87;48.12;94668.59;5095206;28;20173;-77
2022/09/11 09:34:04;;;;;;;9.68;7.10;;;;;;;27.93;46.55;94665.41;5094871;28;20219;-79
2022/09/11 09:36:38;;;;;;;12.00;6.28;;;;;;;27.88;47.77;94659.34;5095375;28;20180;-78
2022/09/11 09:39:12;;;;;;;12.23;6.30;;;;;;;27.04;48.43;94641.88;5095404;28;20185;-83
2022/09/11 09:42:00;;;;;;;9.60;7.10;;;;;;;27.12;49.11;94657.28;5095253;28;20653;-78
2022/09/11 09:44:49;;;;;;;7.50;6.38;;;;;;;27.25;47.78;94652.81;5095132;28;20675;-78
2022/09/11 09:47:16;;;;;;;7.15;5.85;;;;;;;27.06;48.76;94609.13;5095635;28;20669;-82
2022/09/11 09:49:42;;;;;;;6.72;5.53;;;;;;;27.19;47.95;94633.28;5095119;28;20162;-78
2022/09/11 09:52:19;;;;;;;8.20;6.90;;;;;;;27.04;48.94;94622.97;5094946;28;20165;-78
2022/09/11 09:55:12;;;;;;;7.32;5.47;;;;;;;27.24;48.28;94643.94;5092986;28;20633;-79
2022/09/11 09:57:38;;;;;;;10.52;5.68;;;;;;;27.35;48.46;94639.75;5089498;28;20170;-77
2022/09/11 10:00:13;;;;;;;10.15;5.57;;;;;;;27.47;48.27;94643.72;5100169;28;20649;-76
2022/09/11 10:02:56;;;;;;;6.13;5.53;;;;;;;27.19;47.74;94594.63;5088600;28;20173;-77
2022/09/11 10:05:39;;;;;;;7.25;5.93;;;;;;;27.39;47.70;94648.81;5084549;28;20634;-77
2022/09/11 10:08:24;;;;;;;7.75;5.57;;;;;;;27.31;49.25;94632.63;5089216;28;20247;-77
2022/09/11 10:10:58;;;;;;;6.10;5.50;;;;;;;27.25;47.87;94612.25;5089691;28;20177;-78
2022/09/11 10:13:27;;;;;;;7.80;5.40;;;;;;;27.14;46.37;94630.75;5091156;28;20200;-78
2022/09/11 10:15:56;;;;;;;8.27;6.43;;;;;;;27.11;49.25;94628.66;5092354;28;20622;-78
2022/09/11 10:18:21;;;;;;;6.30;5.70;;;;;;;27.06;48.47;94630.75;5088653;28;20665;-77
2022/09/11 10:20:47;;;;;;;6.57;5.25;;;;;;;26.48;48.02;94607.69;5079647;28;20174;-77
2022/09/11 10:23:26;;;;;;;7.82;5.82;;;;;;;26.54;49.79;94631.53;5078403;28;20257;-77
2022/09/11 10:25:52;;;;;;;7.88;6.13;;;;;;;26.50;49.59;94624.38;5085906;28;20540;-77
2022/09/11 10:28:30;;;;;;;11.43;6.03;;;;;;;26.62;51.49;94619.13;5081778;28;20434;-78
2022/09/11 10:30:59;;;;;;;6.68;5.35;;;;;;;26.77;51.75;94621.34;5056959;28;20219;-77
2022/09/11 10:33:35;;;;;;;8.00;5.68;;;;;;;26.96;50.66;94615.66;5080708;28;20185;-77
2022/09/11 10:36:04;;;;;;;6.47;5.72;;;;;;;26.82;49.32;94588.75;5079393;28;20182;-77
2022/09/11 10:38:37;;;;;;;9.75;5.90;;;;;;;26.98;51.47;94619.63;5072907;28;20197;-77
2022/09/11 10:41:13;;;;;;;5.80;5.22;;;;;;;26.77;50.32;94583.53;5073520;28;20224;-77
2022/09/11 10:43:51;;;;;;;6.57;5.32;;;;;;;26.95;49.54;94619.47;5077555;28;20231;-77
2022/09/11 10:46:27;;;;;;;7.72;5.90;;;;;;;26.94;50.73;94623.28;5093527;28;20242;-77
2022/09/11 10:49:17;;;;;;;6.63;5.03;;;;;;;26.85;48.72;94611.66;5092860;28;20921;-77
2022/09/11 10:52:17;;;;;;;6.28;4.72;;;;;;;26.95;48.94;94608.66;5090318;28;20213;-77
2022/09/11 10:54:51;;;;;;;7.82;5.57;;;;;;;26.89;47.99;94609.91;5074302;28;20181;-77
2022/09/11 10:57:26;;;;;;;9.10;5.80;;;;;;;26.83;48.72;94597.66;5092520;28;20174;-77
2022/09/11 11:00:21;;;;;;;7.32;5.10;;;;;;;26.90;49.54;94601.47;5093137;28;20196;-77
2022/09/11 11:02:50;;;;;;;8.25;6.47;;;;;;;26.81;49.37;94597.22;5077421;28;20573;-77
2022/09/11 11:05:29;;;;;;;11.95;7.18;;;;;;;26.61;50.71;94585.94;5078785;28;20182;-77
2022/09/11 11:08:32;;;;;;;6.78;5.10;;;;;;;26.63;50.21;94602.63;5089821;28;20184;-77
2022/09/11 11:11:16;;;;;;;8.80;5.18;;;;;;;26.67;50.72;94597.38;5113576;28;20559;-77
2022/09/11 11:14:22;;;;;;;6.15;5.25;;;;;;;26.78;51.19;94597.84;5113314;28;20244;-77
2022/09/11 11:17:06;;;;;;;5.47;4.97;;;;;;;26.89;50.24;94589.09;5105501;28;20225;-78
2022/09/11 11:19:53;;;;;;;5.95;5.25;;;;;;;26.92;50.17;94583.06;5083129;28;20264;-76
2022/09/11 11:22:38;;;;;;;8.35;4.95;;;;;;;26.96;48.76;94583.22;5083994;28;20174;-76
2022/09/11 11:25:42;;;;;;;6.55;5.00;;;;;;;26.96;49.39;94580.53;5091394;28;20173;-77
2022/09/11 11:28:23;;;;;;;5.15;4.60;;;;;;;27.03;47.81;94557.31;5023421;28;20226;-77
2022/09/11 11:31:22;;;;;;;6.22;4.95;;;;;;;27.03;48.66;94561.91;5085124;28;20205;-77
2022/09/11 11:34:01;;;;;;;6.07;4.90;;;;;;;27.10;48.50;94566.81;5086716;28;20196;-77
2022/09/11 11:36:36;;;;;;;5.50;5.00;;;;;;;27.13;48.57;94558.06;5083747;28;20181;-76
2022/09/11 11:39:23;;;;;;;6.75;4.93;;;;;;;27.09;48.10;94547.09;5084561;28;20173;-77
2022/09/11 11:41:57;;;;;;;5.60;4.55;;;;;;;27.04;46.20;94544.59;5081859;28;20244;-77
2022/09/11 11:44:38;;;;;;;6.47;4.20;;;;;;;27.03;46.70;94556.50;5063533;28;20193;-76
2022/09/11 11:47:09;;;;;;;4.90;4.40;;;;;;;26.91;47.86;94550.97;5088327;28;20292;-76